Terminal Aerodrome Forecast
Issued by NWS Mt. Holly, NJ

Current Version | Previous Version | Text Only | Print | Product List | Glossary On
Versions: 1 2 3 4 5 6 7 8 9 10 11 12 13 14 15 16 17 18 19 20 21 22 23
000
FTUS41 KPHI 271454 AAA
TAFPHL
TAF AMD
KPHL 271454Z 2715/2818 19010KT P6SM FEW030 BKN250
     FM272000 19010KT P6SM BKN050
     FM272300 19008KT P6SM VCSH BKN040
     FM280300 17005KT P6SM BKN025
     FM280500 17004KT 5SM BR BKN010
     FM280800 16004KT 5SM BR BKN005
     FM281400 16006KT P6SM BKN015=

USA.gov is the U.S. government's official web portal to all federal, state and local government web resources and services.